This is the latest recevied weather packets stored in our database for station/object F5MAP-5. If no packets are shown the sender has not sent any weather packets the latest 10 day(s).
| Time | Temp. | Humidity | Pressure | Rain* | Wind** | Luminosity | Snow |
|---|---|---|---|---|---|---|---|
| 1777897933 | 23.33° C | 44% | 1013.1 hPa | 0 mm | - | 199 W/m² | - |
| 1777897333 | 23.33° C | 43% | 1013.2 hPa | 0 mm | - | 236 W/m² | - |
| 1777896733 | 23.33° C | 43% | 1013.1 hPa | 0 mm | - | 285 W/m² | - |
| 1777896133 | 23.33° C | 43% | 1013.2 hPa | 0 mm | - | 306 W/m² | - |
| 1777895532 | 23.33° C | 44% | 1013.2 hPa | 0 mm | - | 323 W/m² | - |
| 1777894932 | 23.33° C | 43% | 1013.2 hPa | 0 mm | - | 355 W/m² | - |
| 1777894333 | 23.89° C | 42% | 1013.3 hPa | 0 mm | - | 346 W/m² | - |
| 1777893732 | 23.33° C | 43% | 1013.2 hPa | 0 mm | - | 548 W/m² | - |
| 1777893132 | 23.33° C | 42% | 1013.3 hPa | 0 mm | - | 387 W/m² | - |
| 1777892532 | 22.78° C | 45% | 1013.3 hPa | 0 mm | - | 659 W/m² | - |
| 1777891932 | 22.22° C | 46% | 1013.4 hPa | 0 mm | - | 531 W/m² | - |
| 1777891332 | 22.22° C | 47% | 1013.6 hPa | 0 mm | - | 552 W/m² | - |
| 1777890732 | 21.67° C | 47% | 1013.7 hPa | 0 mm | - | 348 W/m² | - |
| 1777890132 | 21.67° C | 49% | 1013.7 hPa | 0 mm | - | 378 W/m² | - |
| 1777889532 | 21.11° C | 51% | 1013.8 hPa | 0 mm | - | 533 W/m² | - |
| 1777888932 | 20.56° C | 51% | 1013.9 hPa | 0 mm | - | 336 W/m² | - |
| 1777888333 | 20.56° C | 52% | 1013.9 hPa | 0 mm | - | 348 W/m² | - |
| 1777887733 | 20.56° C | 53% | 1014 hPa | 0 mm | - | 315 W/m² | - |
| 1777887133 | 20° C | 55% | 1014.1 hPa | 0 mm | - | 316 W/m² | - |
| 1777886532 | 20° C | 55% | 1014.2 hPa | 0 mm | - | 383 W/m² | - |
| 1777885932 | 19.44° C | 56% | 1014.2 hPa | 0 mm | - | 311 W/m² | - |
| 1777885332 | 18.89° C | 58% | 1014.3 hPa | 0 mm | - | 336 W/m² | - |
| 1777884733 | 18.33° C | 60% | 1014.3 hPa | 0 mm | - | 568 W/m² | - |
| 1777884132 | 17.78° C | 63% | 1014.3 hPa | 0 mm | - | 366 W/m² | - |
| 1777883532 | 17.22° C | 67% | 1014.3 hPa | 0 mm | - | 494 W/m² | - |
* Rain latest hour (hover to see other rain measurements)
** Current wind speed in m/s (hover to see current wind gust speed)